Main page
METAR-TAF:

METAR-TAF

Airports :

Verona, Italy

Verona Villafranca Airport

latitude: 45-23N, longitude: 010-52E, elevation: 67 m

Current weather observation

The report was made 20 minutes ago, at 22:20 UTC
Wind 5 kt from the Northeast
Temperature 19°C
Humidity 68%
Pressure 1012 hPa
Visibility 10 km or more
Few clouds at a height of 7000 ft

METAR: LIPX 262220Z 05005KT 9999 FEW070 19/13 Q1012

Time: 00:40 (22:40 UTC)

Forecast

The report was made 2 hours and 40 minutes ago, at 20:00 UTC
Forecast valid from 26 at 21 UTC to 27 at 06 UTC
Wind 7 kt from the East
Visibility 10 km or more
Scattered clouds at a height of 7000 ft
Probability 40% :
Temporary
from 26 at 21 UTC to 27 at 02 UTC
rain showers

TAF: LIPX 262000Z 2621/2706 08007KT 9999 SCT070 PROB40 TEMPO 2621/2702 SHRA

Weather observations and forecasts of more than 4000 airports (METAR and TAF reports).

The available stations are represented by yellow and red dots on the map.

Hover mouse over dot to see the name of the station.

Then click to see weather observations and forecasts.

To change the map : click on the green buttons with a black cross to zoom in, on the green button with a dash to zoom out, or on the green arrows for adjacent maps.


METAR-TAF: